createdAt,value
2022-08-09T00:01:43.063Z,15.97
2022-08-09T00:04:33.823Z,15.98
2022-08-09T00:07:03.954Z,15.99
2022-08-09T00:09:37.874Z,16.02
2022-08-09T00:12:05.701Z,16.02
2022-08-09T00:14:37.908Z,16.01
2022-08-09T00:17:06.330Z,16.00
2022-08-09T00:19:34.106Z,16.03
2022-08-09T00:22:03.439Z,15.95
2022-08-09T00:24:32.277Z,15.92
2022-08-09T00:27:01.252Z,15.89
2022-08-09T00:29:39.764Z,15.83
2022-08-09T00:32:26.941Z,15.85
2022-08-09T00:34:55.237Z,15.78
2022-08-09T00:37:22.293Z,15.83
2022-08-09T00:40:09.116Z,15.82
2022-08-09T00:44:10.306Z,15.79
2022-08-09T00:45:25.335Z,15.78
2022-08-09T00:47:52.522Z,15.76
2022-08-09T00:50:23.330Z,15.68
2022-08-09T00:52:50.645Z,15.74
2022-08-09T00:56:02.962Z,15.70
2022-08-09T00:58:05.864Z,15.66
2022-08-09T01:00:35.235Z,15.65
2022-08-09T01:03:19.527Z,15.73
2022-08-09T01:06:20.440Z,15.64
2022-08-09T01:09:09.613Z,15.64
2022-08-09T01:12:02.033Z,15.62
2022-08-09T01:15:17.079Z,15.55
2022-08-09T01:17:57.666Z,15.55
2022-08-09T01:20:45.373Z,15.50
2022-08-09T01:24:10.852Z,15.44
2022-08-09T01:27:12.070Z,15.42
2022-08-09T01:29:54.919Z,15.36
2022-08-09T01:32:34.700Z,15.35
2022-08-09T01:35:29.160Z,15.29
2022-08-09T01:38:10.492Z,15.26
2022-08-09T01:40:53.105Z,15.24
2022-08-09T01:43:42.181Z,15.18
2022-08-09T01:46:26.944Z,15.17
2022-08-09T01:48:59.825Z,15.13
2022-08-09T01:51:32.230Z,15.06
2022-08-09T01:54:02.800Z,15.12
2022-08-09T01:56:33.979Z,15.14
2022-08-09T01:59:08.596Z,15.13
2022-08-09T02:01:59.208Z,15.13
2022-08-09T02:04:26.012Z,15.14
2022-08-09T02:08:35.943Z,15.09
2022-08-09T02:10:18.096Z,15.10
2022-08-09T02:12:46.431Z,15.04
2022-08-09T02:15:19.989Z,15.07
2022-08-09T02:18:09.146Z,15.00
2022-08-09T02:20:46.869Z,15.03
2022-08-09T02:23:54.451Z,14.98
2022-08-09T02:26:27.044Z,14.97
2022-08-09T02:29:02.136Z,14.89
2022-08-09T02:31:38.757Z,14.88
2022-08-09T02:34:25.958Z,14.87
2022-08-09T02:37:05.504Z,14.83
2022-08-09T02:39:45.417Z,14.78
2022-08-09T02:42:25.744Z,14.77
2022-08-09T02:45:09.801Z,14.71
2022-08-09T02:47:57.314Z,14.72
2022-08-09T02:50:38.363Z,14.70
2022-08-09T02:53:26.460Z,14.67
2022-08-09T02:55:58.800Z,14.64
2022-08-09T02:58:32.450Z,14.60
2022-08-09T03:01:08.085Z,14.63
2022-08-09T03:04:18.347Z,14.61
2022-08-09T03:06:29.763Z,14.58
2022-08-09T03:08:58.155Z,14.51
2022-08-09T03:12:04.707Z,14.47
2022-08-09T03:14:15.865Z,14.45
2022-08-09T03:16:47.548Z,14.38
2022-08-09T03:19:52.737Z,14.39
2022-08-09T03:22:11.874Z,14.36
2022-08-09T03:24:42.605Z,14.38
2022-08-09T03:27:21.403Z,14.33
2022-08-09T03:29:57.558Z,14.34
2022-08-09T03:32:31.456Z,14.31
2022-08-09T03:34:59.737Z,14.31
2022-08-09T03:37:55.364Z,14.24
2022-08-09T03:40:18.063Z,14.23
2022-08-09T03:42:46.663Z,14.22
2022-08-09T03:45:14.218Z,14.29
2022-08-09T03:47:46.849Z,14.27
2022-08-09T03:50:18.931Z,14.25
2022-08-09T03:52:59.924Z,14.24
2022-08-09T03:55:30.161Z,14.24
2022-08-09T03:58:14.750Z,14.17
2022-08-09T04:00:46.047Z,14.17
2022-08-09T04:03:24.980Z,14.17
2022-08-09T04:06:05.700Z,14.12
2022-08-09T04:08:33.620Z,14.10
2022-08-09T04:11:01.421Z,14.11
2022-08-09T04:14:37.462Z,14.09
2022-08-09T04:16:19.632Z,14.10
2022-08-09T04:18:49.271Z,14.07
2022-08-09T04:21:18.868Z,14.03
2022-08-09T04:23:53.766Z,14.09
2022-08-09T04:26:24.707Z,14.07
2022-08-09T04:28:56.132Z,14.02
2022-08-09T04:31:37.589Z,14.05
2022-08-09T04:34:13.830Z,14.04
2022-08-09T04:36:50.399Z,14.03
2022-08-09T04:39:17.732Z,14.05
2022-08-09T04:41:44.977Z,14.04
2022-08-09T04:44:14.534Z,14.08
2022-08-09T04:46:58.314Z,14.09
2022-08-09T04:49:53.709Z,14.14
2022-08-09T04:52:26.425Z,14.14
2022-08-09T04:54:59.523Z,14.15
2022-08-09T04:57:54.164Z,14.15
2022-08-09T05:00:16.620Z,14.14
2022-08-09T05:02:44.229Z,14.16
2022-08-09T05:05:31.408Z,14.22
2022-08-09T05:08:05.750Z,14.22
2022-08-09T05:10:34.393Z,14.24
2022-08-09T05:13:04.076Z,14.27
2022-08-09T05:15:43.054Z,14.28
2022-08-09T05:18:37.955Z,14.32
2022-08-09T05:21:10.092Z,14.34
2022-08-09T05:23:57.854Z,14.38
2022-08-09T05:26:45.519Z,14.42
2022-08-09T05:29:21.983Z,14.45
2022-08-09T05:31:58.887Z,14.45
2022-08-09T05:34:32.376Z,14.48
2022-08-09T05:37:11.348Z,14.54
2022-08-09T05:39:43.750Z,14.61
2022-08-09T05:42:20.524Z,14.64
2022-08-09T05:44:53.002Z,14.68
2022-08-09T05:47:22.744Z,14.71
2022-08-09T05:50:28.050Z,14.77
2022-08-09T05:52:44.646Z,14.82
2022-08-09T05:55:21.804Z,14.88
2022-08-09T05:57:57.419Z,14.93
2022-08-09T06:00:29.027Z,14.96
2022-08-09T06:03:03.364Z,15.04
2022-08-09T06:05:50.145Z,15.08
2022-08-09T06:08:24.709Z,15.22
2022-08-09T06:10:55.350Z,15.23
2022-08-09T06:13:23.661Z,15.30
2022-08-09T06:15:52.379Z,15.37
2022-08-09T06:18:25.337Z,15.48
2022-08-09T06:20:58.523Z,15.64
2022-08-09T06:23:59.022Z,15.98
2022-08-09T06:26:21.010Z,16.35
2022-08-09T06:29:00.425Z,16.84
2022-08-09T06:31:40.599Z,17.27
2022-08-09T06:34:22.623Z,17.78
2022-08-09T06:36:50.630Z,17.97
2022-08-09T06:39:26.056Z,18.48
2022-08-09T06:42:13.152Z,18.83
2022-08-09T06:44:40.156Z,19.29
2022-08-09T06:47:07.112Z,19.53
2022-08-09T06:50:11.709Z,19.79
2022-08-09T06:52:29.654Z,19.89
2022-08-09T06:54:56.681Z,20.26
2022-08-09T06:57:42.444Z,20.62
2022-08-09T07:00:50.474Z,20.76
2022-08-09T07:02:59.087Z,21.09
2022-08-09T07:05:53.797Z,21.34
2022-08-09T07:08:13.248Z,21.61
2022-08-09T07:10:40.513Z,21.70
2022-08-09T07:13:27.732Z,21.91
2022-08-09T07:16:42.915Z,22.00
2022-08-09T07:18:41.511Z,22.34
2022-08-09T07:21:10.387Z,22.56
2022-08-09T07:23:56.527Z,22.50
2022-08-09T07:26:25.602Z,23.10
2022-08-09T07:29:08.986Z,23.30
2022-08-09T07:31:45.854Z,23.30
2022-08-09T07:34:20.436Z,23.30
2022-08-09T07:36:49.692Z,23.65
2022-08-09T07:39:20.518Z,23.79
2022-08-09T07:42:06.471Z,24.17
2022-08-09T07:44:50.934Z,24.04
2022-08-09T07:47:19.841Z,24.26
2022-08-09T07:50:04.643Z,24.04
2022-08-09T07:52:36.527Z,24.29
2022-08-09T07:55:09.705Z,24.29
2022-08-09T07:57:47.133Z,24.51
2022-08-09T08:00:20.835Z,24.89
2022-08-09T08:03:08.249Z,24.79
2022-08-09T08:05:54.016Z,24.42
2022-08-09T08:09:02.633Z,24.97
2022-08-09T08:12:24.020Z,25.03
2022-08-09T08:13:58.584Z,25.67
2022-08-09T08:16:31.287Z,25.52
2022-08-09T08:18:59.826Z,25.76
2022-08-09T08:21:31.229Z,25.76
2022-08-09T08:24:00.868Z,26.04
2022-08-09T08:26:55.042Z,26.15
2022-08-09T08:29:20.388Z,25.76
2022-08-09T08:32:03.667Z,26.10
2022-08-09T08:34:34.593Z,26.42
2022-08-09T08:37:02.527Z,26.32
2022-08-09T08:39:29.578Z,26.14
2022-08-09T08:42:07.417Z,26.53
2022-08-09T08:44:39.465Z,26.54
2022-08-09T08:47:12.255Z,26.24
2022-08-09T08:49:47.790Z,26.83
2022-08-09T08:52:58.202Z,26.85
2022-08-09T08:55:15.372Z,26.61
2022-08-09T08:57:56.385Z,26.97
2022-08-09T09:00:30.475Z,27.17
2022-08-09T09:03:11.857Z,27.47
2022-08-09T09:05:59.139Z,27.27
2022-08-09T09:08:38.103Z,27.14
2022-08-09T09:11:17.832Z,27.09
2022-08-09T09:13:57.586Z,27.45
2022-08-09T09:16:30.557Z,27.25
2022-08-09T09:19:22.602Z,27.40
2022-08-09T09:22:11.845Z,27.59
2022-08-09T09:24:45.340Z,27.90
2022-08-09T09:28:04.184Z,27.81
2022-08-09T09:30:40.073Z,28.44
2022-08-09T09:33:16.571Z,27.93
2022-08-09T09:36:00.732Z,28.12
2022-08-09T09:38:42.849Z,28.45
2022-08-09T09:41:11.294Z,28.54
2022-08-09T09:44:11.143Z,28.67
2022-08-09T09:46:42.126Z,28.49
2022-08-09T09:49:13.194Z,28.63
2022-08-09T09:51:41.776Z,28.98
2022-08-09T09:54:21.047Z,28.91
2022-08-09T09:58:00.676Z,28.71
2022-08-09T09:59:37.365Z,28.75
2022-08-09T10:02:04.462Z,29.00
2022-08-09T10:04:32.317Z,28.76
2022-08-09T10:07:03.537Z,28.91
2022-08-09T10:09:55.061Z,29.03
2022-08-09T10:12:29.449Z,28.73
2022-08-09T10:15:17.424Z,29.12
2022-08-09T10:18:12.461Z,29.12
2022-08-09T10:20:44.720Z,29.85
2022-08-09T10:23:20.841Z,29.35
2022-08-09T10:26:08.093Z,29.86
2022-08-09T10:28:39.138Z,29.98
2022-08-09T10:34:10.278Z,29.70
2022-08-09T10:36:43.932Z,29.18
2022-08-09T10:39:15.780Z,29.66
2022-08-09T10:41:46.253Z,29.71
2022-08-09T10:44:19.362Z,29.08
2022-08-09T10:48:10.178Z,29.47
2022-08-09T10:50:15.012Z,29.52
2022-08-09T10:53:10.322Z,29.65
2022-08-09T10:55:57.947Z,29.50
2022-08-09T10:58:37.500Z,29.88
2022-08-09T11:03:03.351Z,28.58
2022-08-09T11:04:20.051Z,29.37
2022-08-09T11:07:03.343Z,29.79
2022-08-09T11:09:48.237Z,29.65
2022-08-09T11:12:29.469Z,29.06
2022-08-09T11:15:01.491Z,29.49
2022-08-09T11:17:45.208Z,29.39
2022-08-09T11:20:22.649Z,29.91
2022-08-09T11:22:57.199Z,29.61
2022-08-09T11:25:36.257Z,29.87
2022-08-09T11:28:38.640Z,29.39
2022-08-09T11:31:49.308Z,29.49
2022-08-09T11:34:36.326Z,29.33
2022-08-09T11:37:07.574Z,29.23
2022-08-09T11:40:02.711Z,29.24
2022-08-09T11:42:51.440Z,29.29
2022-08-09T11:45:42.452Z,29.25
2022-08-09T11:48:26.330Z,28.82
2022-08-09T11:52:53.791Z,28.91
2022-08-09T11:54:21.381Z,28.54
2022-08-09T11:56:55.271Z,28.37
2022-08-09T11:59:30.144Z,28.54
2022-08-09T12:02:34.817Z,28.50
2022-08-09T12:04:58.701Z,28.22
2022-08-09T12:07:34.360Z,27.86
2022-08-09T12:10:31.795Z,28.13
2022-08-09T12:12:56.156Z,28.16
2022-08-09T12:15:48.626Z,28.23
2022-08-09T12:18:26.172Z,27.90
2022-08-09T12:21:00.422Z,27.63
2022-08-09T12:23:58.054Z,27.54
2022-08-09T12:26:19.798Z,27.91
2022-08-09T12:28:59.206Z,27.78
2022-08-09T12:31:58.838Z,27.53
2022-08-09T12:34:17.726Z,27.57
2022-08-09T12:36:58.902Z,27.43
2022-08-09T12:39:42.793Z,27.38
2022-08-09T12:42:16.355Z,27.33
2022-08-09T12:44:52.019Z,27.36
2022-08-09T12:47:22.777Z,27.19
2022-08-09T12:50:09.064Z,27.26
2022-08-09T12:53:08.147Z,27.31
2022-08-09T12:56:15.442Z,27.49
2022-08-09T12:58:27.271Z,27.53
2022-08-09T13:00:55.934Z,27.57
2022-08-09T13:03:53.315Z,27.53
2022-08-09T13:06:34.583Z,27.20
2022-08-09T13:09:18.186Z,27.18
2022-08-09T13:11:50.356Z,27.12
2022-08-09T13:14:40.761Z,27.21
2022-08-09T13:17:44.024Z,27.11
2022-08-09T13:20:13.323Z,27.19
2022-08-09T13:23:05.164Z,27.15
2022-08-09T13:25:53.318Z,27.21
2022-08-09T13:28:33.789Z,27.30
2022-08-09T13:32:17.133Z,27.24
2022-08-09T13:33:58.830Z,27.28
2022-08-09T13:36:42.653Z,27.29
2022-08-09T13:41:51.303Z,27.18
2022-08-09T13:42:12.466Z,27.26
2022-08-09T13:44:42.842Z,27.28
2022-08-09T13:47:26.962Z,27.06
2022-08-09T13:50:07.885Z,26.94
2022-08-09T13:52:40.576Z,26.91
2022-08-09T13:55:13.816Z,26.86
2022-08-09T13:57:53.082Z,27.03
2022-08-09T14:00:28.531Z,26.87
2022-08-09T14:03:04.013Z,26.68
2022-08-09T14:05:56.576Z,26.58
2022-08-09T14:08:30.386Z,26.65
2022-08-09T14:11:01.405Z,26.52
2022-08-09T14:14:24.887Z,26.26
2022-08-09T14:16:28.844Z,26.19
2022-08-09T14:18:57.352Z,26.16
2022-08-09T14:21:26.940Z,26.15
2022-08-09T14:23:57.613Z,26.02
2022-08-09T14:26:32.612Z,26.10
2022-08-09T14:29:25.856Z,26.13
2022-08-09T14:31:55.832Z,26.14
2022-08-09T14:34:31.564Z,26.01
2022-08-09T14:37:02.639Z,25.96
2022-08-09T14:39:40.539Z,26.04
2022-08-09T14:42:32.066Z,26.18
2022-08-09T14:46:40.436Z,26.11
2022-08-09T14:47:57.017Z,26.24
2022-08-09T14:50:25.370Z,26.12
2022-08-09T14:52:54.616Z,26.17
2022-08-09T14:55:21.981Z,26.02
2022-08-09T14:57:49.675Z,26.12
2022-08-09T15:00:17.862Z,26.02
2022-08-09T15:02:47.771Z,26.09
2022-08-09T15:05:19.285Z,26.06
2022-08-09T15:07:56.305Z,26.07
2022-08-09T15:10:28.247Z,25.71
2022-08-09T15:12:56.803Z,25.90
2022-08-09T15:15:24.687Z,25.86
2022-08-09T15:17:56.069Z,25.87
2022-08-09T15:21:55.259Z,25.75
2022-08-09T15:24:00.751Z,25.91
2022-08-09T15:26:00.642Z,25.88
2022-08-09T15:28:31.036Z,25.95
2022-08-09T15:31:10.066Z,26.04
2022-08-09T15:34:31.977Z,26.01
2022-08-09T15:36:30.302Z,25.97
2022-08-09T15:39:01.049Z,25.93
2022-08-09T15:41:32.290Z,25.97
2022-08-09T15:44:03.995Z,26.00
2022-08-09T15:46:34.526Z,26.02
2022-08-09T15:49:22.732Z,26.03
2022-08-09T15:52:03.907Z,26.01
2022-08-09T15:54:49.103Z,26.06
2022-08-09T15:57:35.997Z,26.11
2022-08-09T16:00:14.633Z,25.98
2022-08-09T16:02:53.706Z,25.92
2022-08-09T16:05:26.327Z,25.98
2022-08-09T16:07:53.283Z,25.89
2022-08-09T16:10:54.671Z,25.84
2022-08-09T16:13:20.956Z,25.89
2022-08-09T16:16:09.917Z,25.89
2022-08-09T16:18:44.699Z,25.70
2022-08-09T16:21:17.464Z,25.74
2022-08-09T16:23:54.850Z,25.81
2022-08-09T16:26:33.859Z,25.68
2022-08-09T16:29:15.534Z,25.70
2022-08-09T16:32:19.168Z,25.66
2022-08-09T16:34:54.400Z,25.77
2022-08-09T16:37:54.527Z,25.68
2022-08-09T16:40:13.893Z,25.64
2022-08-09T16:42:48.633Z,25.56
2022-08-09T16:45:19.610Z,25.49
2022-08-09T16:48:38.779Z,25.46
2022-08-09T16:50:38.275Z,25.50
2022-08-09T16:53:06.040Z,25.52
2022-08-09T16:55:58.338Z,25.40
2022-08-09T16:58:21.200Z,25.42
2022-08-09T17:00:49.477Z,25.54
2022-08-09T17:03:21.655Z,25.56
2022-08-09T17:06:09.408Z,25.45
2022-08-09T17:09:03.142Z,25.35
2022-08-09T17:11:37.710Z,25.31
2022-08-09T17:14:27.346Z,25.27
2022-08-09T17:17:02.354Z,25.14
2022-08-09T17:20:05.124Z,25.16
2022-08-09T17:22:23.967Z,25.07
2022-08-09T17:24:55.018Z,25.21
2022-08-09T17:27:22.929Z,25.18
2022-08-09T17:29:53.079Z,25.12
2022-08-09T17:32:26.675Z,25.07
2022-08-09T17:35:11.547Z,25.12
2022-08-09T17:38:12.671Z,24.99
2022-08-09T17:40:32.618Z,24.95
2022-08-09T17:43:32.672Z,24.82
2022-08-09T17:46:04.114Z,24.78
2022-08-09T17:48:38.901Z,24.64
2022-08-09T17:51:17.920Z,24.63
2022-08-09T17:53:54.934Z,24.50
2022-08-09T17:56:35.255Z,24.50
2022-08-09T17:59:09.083Z,24.35
2022-08-09T18:02:03.235Z,24.33
2022-08-09T18:04:27.076Z,24.40
2022-08-09T18:06:55.636Z,24.26
2022-08-09T18:09:35.714Z,24.23
2022-08-09T18:12:17.272Z,24.19
2022-08-09T18:14:54.226Z,24.17
2022-08-09T18:18:01.535Z,24.09
2022-08-09T18:20:56.085Z,23.97
2022-08-09T18:23:05.244Z,23.90
2022-08-09T18:25:50.135Z,23.89
2022-08-09T18:30:34.826Z,23.92
2022-08-09T18:31:06.765Z,23.92
2022-08-09T18:33:34.507Z,23.88
2022-08-09T18:36:01.553Z,23.85
2022-08-09T18:38:28.908Z,23.79
2022-08-09T18:40:56.200Z,23.75
2022-08-09T18:43:24.899Z,23.72
2022-08-09T18:46:49.262Z,23.67
2022-08-09T18:48:44.298Z,23.64
2022-08-09T18:51:11.252Z,23.63
2022-08-09T18:54:01.905Z,23.52
2022-08-09T18:56:27.018Z,23.48
2022-08-09T18:58:56.234Z,23.39
2022-08-09T19:01:24.066Z,23.33
2022-08-09T19:04:01.343Z,23.32
2022-08-09T19:06:34.343Z,23.25
2022-08-09T19:09:05.702Z,23.27
2022-08-09T19:11:38.335Z,23.23
2022-08-09T19:14:09.490Z,23.10
2022-08-09T19:16:37.939Z,22.95
2022-08-09T19:19:21.526Z,23.01
2022-08-09T19:22:06.172Z,22.94
2022-08-09T19:25:09.912Z,22.82
2022-08-09T19:27:28.487Z,22.86
2022-08-09T19:30:23.281Z,22.74
2022-08-09T19:32:45.952Z,22.68
2022-08-09T19:35:20.198Z,22.69
2022-08-09T19:37:58.043Z,22.62
2022-08-09T19:40:33.375Z,22.59
2022-08-09T19:43:10.431Z,22.51
2022-08-09T19:45:43.355Z,22.45
2022-08-09T19:48:10.825Z,22.33
2022-08-09T19:50:50.749Z,22.22
2022-08-09T19:53:21.695Z,22.16
2022-08-09T19:56:03.502Z,22.02
2022-08-09T19:58:33.767Z,21.96
2022-08-09T20:01:06.005Z,21.95
2022-08-09T20:04:16.971Z,21.85
2022-08-09T20:06:31.411Z,21.75
2022-08-09T20:08:59.492Z,21.67
2022-08-09T20:11:42.993Z,21.71
2022-08-09T20:14:15.382Z,21.61
2022-08-09T20:16:49.993Z,21.56
2022-08-09T20:19:46.379Z,21.47
2022-08-09T20:22:08.963Z,21.44
2022-08-09T20:24:37.383Z,21.39
2022-08-09T20:27:08.827Z,21.34
2022-08-09T20:29:38.789Z,21.28
2022-08-09T20:32:41.935Z,21.24
2022-08-09T20:34:56.482Z,21.13
2022-08-09T20:37:23.851Z,21.03
2022-08-09T20:40:16.833Z,21.06
2022-08-09T20:42:38.238Z,20.98
2022-08-09T20:46:02.030Z,20.90
2022-08-09T20:47:55.175Z,20.97
2022-08-09T20:50:48.182Z,20.87
2022-08-09T20:53:35.838Z,20.86
2022-08-09T20:56:01.949Z,20.87
2022-08-09T20:58:32.424Z,20.80
2022-08-09T21:01:32.446Z,20.70
2022-08-09T21:04:07.906Z,20.66
2022-08-09T21:06:44.728Z,20.62
2022-08-09T21:09:14.152Z,20.57
2022-08-09T21:14:30.917Z,20.42
2022-08-09T21:17:02.096Z,20.39
2022-08-09T21:20:05.255Z,20.31
2022-08-09T21:22:46.898Z,20.33
2022-08-09T21:25:37.962Z,20.31
2022-08-09T21:28:07.125Z,20.19
2022-08-09T21:30:37.011Z,20.14
2022-08-09T21:33:08.429Z,20.09
2022-08-09T21:35:39.462Z,20.07
2022-08-09T21:38:11.216Z,19.99
2022-08-09T21:40:39.632Z,19.97
2022-08-09T21:43:09.028Z,19.89
2022-08-09T21:45:39.181Z,19.80
2022-08-09T21:48:08.398Z,19.83
2022-08-09T21:50:39.030Z,19.75
2022-08-09T21:53:22.395Z,19.66
2022-08-09T21:56:00.486Z,19.67
2022-08-09T21:58:31.190Z,19.49
2022-08-09T22:00:59.197Z,19.48
2022-08-09T22:03:26.460Z,19.39
2022-08-09T22:05:55.236Z,19.44
2022-08-09T22:08:25.752Z,19.34
2022-08-09T22:11:49.531Z,19.32
2022-08-09T22:13:43.562Z,19.31
2022-08-09T22:16:11.804Z,19.23
2022-08-09T22:18:53.262Z,19.17
2022-08-09T22:21:25.015Z,19.16
2022-08-09T22:24:06.580Z,19.03
2022-08-09T22:26:37.743Z,19.01
2022-08-09T22:29:10.027Z,18.97
2022-08-09T22:31:44.313Z,18.90
2022-08-09T22:34:25.862Z,18.81
2022-08-09T22:36:58.250Z,18.74
2022-08-09T22:39:55.586Z,18.77
2022-08-09T22:42:20.827Z,18.69
2022-08-09T22:45:02.266Z,18.66
2022-08-09T22:48:14.692Z,18.61
2022-08-09T22:50:26.837Z,18.59
2022-08-09T22:52:54.933Z,18.54
2022-08-09T22:55:39.428Z,18.47
2022-08-09T22:58:20.492Z,18.43
2022-08-09T23:00:59.744Z,18.34
2022-08-09T23:04:02.405Z,18.28
2022-08-09T23:06:14.241Z,18.27
2022-08-09T23:08:44.961Z,18.21
2022-08-09T23:11:16.668Z,18.10
2022-08-09T23:13:49.095Z,18.01
2022-08-09T23:16:19.239Z,18.05
2022-08-09T23:18:46.200Z,18.00
2022-08-09T23:21:15.810Z,17.96
2022-08-09T23:24:05.190Z,17.93
2022-08-09T23:26:34.897Z,17.89
2022-08-09T23:29:01.859Z,17.84
2022-08-09T23:31:28.783Z,17.76
2022-08-09T23:33:55.715Z,17.74
2022-08-09T23:36:22.677Z,17.71
2022-08-09T23:38:49.664Z,17.68
2022-08-09T23:41:28.893Z,17.69
2022-08-09T23:44:01.529Z,17.69
2022-08-09T23:46:30.645Z,17.67
2022-08-09T23:48:59.424Z,17.62
2022-08-09T23:51:28.089Z,17.52
2022-08-09T23:54:02.911Z,17.48
2022-08-09T23:56:53.180Z,17.47
2022-08-09T23:59:20.956Z,17.41
